Nearby METAR Reports

Meteorological Terminal Air Report (METAR)

K3I2 - Pt Pleasant, West Virginia, USA
Distance from station: S 11mi, 18km
Updated: Wed, 18-Oct-2017 8:35am EDT
Mostly cloudy
Mostly cloudy
 Wind from calm
Wind: Calm
Temperature: 37°F , 3°C
Dew Point: 36°F , 2°C
Humidity: 93%
Barometer: 30.37 inHg , 1028.4 hPa
Clouds: Mostly cloudy
Visibility: 10 miles , 16 km
Cloud details: Mostly cloudy 100 ft
2017/10/18 12:35 K3I2 181235Z AUTO 00000KT 10SM BKN001 03/02 A3037 RMK AO2 T00300022
KUNI - Athens, Ohio, USA
Distance from station: NW 13mi, 21km
Updated: Wed, 18-Oct-2017 8:35am EDT
Clear
Clear
 Wind from calm
Wind: Calm
Temperature: 36°F , 2°C
Dew Point: 36°F , 2°C
Humidity: 100%
Barometer: 30.35 inHg , 1027.8 hPa
Clouds: Clear
Visibility: 10 miles , 16 km
2017/10/18 12:35 KUNI 181235Z AUTO 00000KT 10SM CLR 02/02 A3035 RMK AO2 T00230023
 
KPKB - Parkersburg, West Virginia, USA
Distance from station: ENE 40mi, 65km
Updated: Wed, 18-Oct-2017 7:53am EDT
Fog, Partly cloudy
Fog, Partly cloudy
 Wind from calm
Wind: Calm
Temperature: 37°F , 3°C
Dew Point: 37°F , 3°C
Humidity: 100%
Barometer: 30.37 inHg , 1028.4 hPa
Summary: Fog
Clouds: Partly cloudy
Visibility: 1/8 mile , 2 km
Cloud details: Partly cloudy 0 ft
2017/10/18 11:53 KPKB 181153Z 00000KT 1/8SM R03/1600FT FG SCT000 03/03 A3037 RMK AO2 SLP286 FG SCT000 T00330028 10050 20028 51008 $
KCRW - Charleston, West Virginia, USA
Distance from station: SSE 55mi, 88km
Updated: Wed, 18-Oct-2017 7:54am EDT
Fog, Partly cloudy
Fog, Partly cloudy
 Wind from calm
Wind: Calm
Temperature: 37°F , 3°C
Dew Point: 36°F , 2°C
Humidity: 93%
Barometer: 30.34 inHg , 1027.4 hPa
Summary: Fog
Clouds: Partly cloudy
Visibility: 1/2 mile , 2 km
Cloud details: Partly cloudy 0 ft
2017/10/18 11:54 KCRW 181154Z 00000KT 1/2SM FG SCT000 03/02 A3034 RMK AO2 SLP275 FG SCT000 T00280017 10050 20022 51008 RVRNO
 
KHTS - Huntington, West Virginia, USA
Distance from station: SSW 55mi, 89km
Updated: Wed, 18-Oct-2017 7:51am EDT
Clear
Clear
 Wind from calm
Wind: Calm
Temperature: 37°F , 3°C
Dew Point: 36°F , 2°C
Humidity: 93%
Barometer: 30.33 inHg , 1027.1 hPa
Clouds: Clear
Visibility: 10 miles , 16 km
2017/10/18 11:51 KHTS 181151Z 00000KT 10SM CLR 03/02 A3033 RMK AO2 SLP274 T00330022 10061 20028 53011
KLHQ - Lancaster, Ohio, USA
Distance from station: NW 56mi, 91km
Updated: Wed, 18-Oct-2017 7:53am EDT
Mist, Clear
Mist, Clear
 Wind from calm
Wind: Calm
Temperature: 36°F , 2°C
Dew Point: 34°F , 1°C
Humidity: 93%
Barometer: 30.33 inHg , 1027.1 hPa
Summary: Mist
Clouds: Clear
Visibility: 6 miles , 10 km
2017/10/18 11:53 KLHQ 181153Z AUTO 00000KT 6SM BR CLR 02/01 A3033 RMK AO2 SLP273 I6000 T00170011 10061 20017 51006
 
KZZV - Zanesville, Ohio, USA
Distance from station: N 61mi, 99km
Updated: Wed, 18-Oct-2017 7:53am EDT
Clear
Clear
 Wind from calm
Wind: Calm
Temperature: 37°F , 3°C
Dew Point: 36°F , 2°C
Humidity: 93%
Barometer: 30.33 inHg , 1027.1 hPa
Clouds: Clear
Visibility: 10 miles , 16 km
2017/10/18 11:53 KZZV 181153Z AUTO 00000KT 10SM CLR 03/02 A3033 RMK AO2 SLP273 T00330017 10061 20033 51008
KLCK - Rickenbacker Ang, Ohio, USA
Distance from station: NW 68mi, 110km
Updated: Wed, 18-Oct-2017 8:35am EDT
Clear
Clear
 Wind from calm
Wind: Calm
Temperature: 39°F , 4°C
Dew Point: 39°F , 4°C
Humidity: 100%
Barometer: 30.33 inHg , 1027.1 hPa
Clouds: Clear
Visibility: 10 miles , 16 km
2017/10/18 12:35 KLCK 181235Z AUTO 00000KT 10SM CLR 04/04 A3033 RMK AO2 T00430043 PWINO
 
KVTA - Newark, Ohio, USA
Distance from station: NNW 68mi, 110km
Updated: Wed, 18-Oct-2017 7:54am EDT
Clear
Clear
 Wind from calm
Wind: Calm
Temperature: 36°F , 2°C
Dew Point: 34°F , 1°C
Humidity: 93%
Barometer: 30.32 inHg , 1026.8 hPa
Clouds: Clear
Visibility: 10 miles , 16 km
2017/10/18 11:54 KVTA 181154Z AUTO 00000KT 10SM CLR 02/01 A3032 RMK AO2 SLP271 T00220011 10050 20022 51007